createdAt,value
2022-08-03T00:00:15.318Z,23.84
2022-08-03T00:01:15.293Z,23.81
2022-08-03T00:02:15.668Z,23.83
2022-08-03T00:03:15.366Z,23.83
2022-08-03T00:04:15.273Z,23.81
2022-08-03T00:05:15.253Z,23.81
2022-08-03T00:06:15.254Z,23.80
2022-08-03T00:07:15.231Z,23.80
2022-08-03T00:08:15.235Z,23.81
2022-08-03T00:09:15.239Z,23.83
2022-08-03T00:10:15.214Z,23.81
2022-08-03T00:11:15.197Z,23.83
2022-08-03T00:12:15.391Z,23.78
2022-08-03T00:13:15.170Z,23.78
2022-08-03T00:14:15.169Z,23.77
2022-08-03T00:15:16.705Z,23.73
2022-08-03T00:16:15.142Z,23.71
2022-08-03T00:17:15.143Z,23.71
2022-08-03T00:18:15.120Z,23.71
2022-08-03T00:19:15.105Z,23.68
2022-08-03T00:20:15.110Z,23.68
2022-08-03T00:21:15.670Z,23.68
2022-08-03T00:22:15.349Z,23.68
2022-08-03T00:23:15.068Z,23.65
2022-08-03T00:24:15.063Z,23.62
2022-08-03T00:25:15.048Z,23.62
2022-08-03T00:26:15.064Z,23.61
2022-08-03T00:27:16.648Z,23.62
2022-08-03T00:28:15.019Z,23.63
2022-08-03T00:29:15.012Z,23.62
2022-08-03T00:30:15.172Z,23.61
2022-08-03T00:31:14.979Z,23.62
2022-08-03T00:32:15.192Z,23.58
2022-08-03T00:33:14.955Z,23.59
2022-08-03T00:34:14.955Z,23.59
2022-08-03T00:35:37.093Z,23.58
2022-08-03T00:36:14.942Z,23.56
2022-08-03T00:37:14.918Z,23.55
2022-08-03T00:38:14.941Z,23.56
2022-08-03T00:39:14.889Z,23.56
2022-08-03T00:40:14.894Z,23.54
2022-08-03T00:41:15.675Z,23.54
2022-08-03T00:42:15.182Z,23.51
2022-08-03T00:43:14.857Z,23.48
2022-08-03T00:44:14.855Z,23.46
2022-08-03T00:45:14.856Z,23.46
2022-08-03T00:46:19.256Z,23.46
2022-08-03T00:47:14.824Z,23.47
2022-08-03T00:48:33.203Z,23.47
2022-08-03T00:49:14.857Z,23.46
2022-08-03T00:50:14.808Z,23.46
2022-08-03T00:51:14.799Z,23.44
2022-08-03T00:52:14.771Z,23.44
2022-08-03T00:53:14.751Z,23.41
2022-08-03T00:54:14.738Z,23.41
2022-08-03T00:55:14.724Z,23.40
2022-08-03T00:56:14.719Z,23.37
2022-08-03T00:57:14.722Z,23.39
2022-08-03T00:58:14.704Z,23.37
2022-08-03T00:59:14.683Z,23.34
2022-08-03T01:00:14.678Z,23.32
2022-08-03T01:01:14.776Z,23.27
2022-08-03T01:02:14.914Z,23.27
2022-08-03T01:03:14.683Z,23.27
2022-08-03T01:04:14.639Z,23.25
2022-08-03T01:05:14.619Z,23.27
2022-08-03T01:06:14.614Z,23.24
2022-08-03T01:07:14.605Z,23.24
2022-08-03T01:08:14.607Z,23.21
2022-08-03T01:09:14.583Z,23.21
2022-08-03T05:01:20.856Z,21.15
2022-08-03T05:02:21.787Z,21.15
2022-08-03T05:03:24.357Z,21.15
2022-08-03T05:04:21.773Z,21.15
2022-08-03T05:05:21.758Z,21.15
2022-08-03T05:06:21.765Z,21.18
2022-08-03T05:07:25.045Z,21.18
2022-08-03T05:08:28.256Z,21.21
2022-08-03T05:09:46.092Z,21.22
2022-08-03T05:10:21.709Z,21.22
2022-08-03T05:11:21.722Z,21.25
2022-08-03T05:12:21.716Z,21.29
2022-08-03T05:13:21.702Z,21.30
2022-08-03T05:14:28.289Z,21.32
2022-08-03T05:15:21.667Z,21.33
2022-08-03T05:16:21.639Z,21.36
2022-08-03T05:17:21.639Z,21.37
2022-08-03T05:18:21.617Z,21.40
2022-08-03T05:19:21.627Z,21.43
2022-08-03T05:20:21.595Z,21.45
2022-08-03T05:21:21.590Z,21.43
2022-08-03T05:22:21.579Z,21.43
2022-08-03T05:23:21.568Z,21.39
2022-08-03T05:24:21.571Z,21.45
2022-08-03T05:25:27.106Z,21.48
2022-08-03T05:26:21.539Z,21.48
2022-08-03T05:27:21.524Z,21.51
2022-08-03T05:28:21.546Z,21.52
2022-08-03T05:29:21.503Z,21.55
2022-08-03T05:30:26.759Z,21.60
2022-08-03T05:31:21.506Z,21.60
2022-08-03T05:32:21.647Z,21.60
2022-08-03T05:33:21.464Z,21.62
2022-08-03T05:34:21.451Z,21.62
2022-08-03T05:36:01.347Z,21.62
2022-08-03T05:36:21.435Z,21.67
2022-08-03T05:37:21.452Z,21.69
2022-08-03T05:38:27.987Z,21.70
2022-08-03T05:39:21.403Z,21.72
2022-08-03T05:40:21.438Z,21.70
2022-08-03T05:41:36.479Z,21.72
2022-08-03T05:42:21.367Z,21.75
2022-08-03T05:43:21.398Z,21.76
2022-08-03T05:44:21.346Z,21.77
2022-08-03T05:45:25.377Z,21.77
2022-08-03T05:46:21.335Z,21.76
2022-08-03T05:47:21.317Z,21.77
2022-08-03T05:48:21.296Z,21.79
2022-08-03T05:49:21.353Z,21.80
2022-08-03T05:50:21.332Z,21.80
2022-08-03T05:51:21.284Z,21.80
2022-08-03T05:52:21.560Z,21.83
2022-08-03T05:53:21.279Z,21.85
2022-08-03T05:54:21.239Z,21.89
2022-08-03T05:55:21.249Z,21.91
2022-08-03T05:56:21.238Z,21.93
2022-08-03T05:57:21.210Z,21.95
2022-08-03T05:58:21.198Z,21.96
2022-08-03T05:59:37.640Z,21.96
2022-08-03T06:00:21.199Z,21.98
2022-08-03T06:01:21.212Z,22.00
2022-08-03T06:02:21.166Z,22.02
2022-08-03T06:03:21.209Z,22.00
2022-08-03T06:04:21.134Z,22.02
2022-08-03T06:05:21.120Z,22.06
2022-08-03T06:06:21.128Z,22.06
2022-08-03T06:07:21.132Z,22.06
2022-08-03T06:08:21.094Z,22.07
2022-08-03T06:09:21.094Z,22.08
2022-08-03T06:10:37.096Z,22.08
2022-08-03T06:11:21.079Z,22.11
2022-08-03T06:12:21.056Z,22.14
2022-08-03T06:13:21.041Z,22.15
2022-08-03T06:14:21.017Z,22.14
2022-08-03T06:15:21.028Z,22.17
2022-08-03T06:16:21.016Z,22.17
2022-08-03T06:17:20.996Z,22.22
2022-08-03T06:18:21.007Z,22.20
2022-08-03T06:19:20.978Z,22.20
2022-08-03T06:20:20.970Z,22.23
2022-08-03T06:21:20.979Z,22.28
2022-08-03T06:22:20.942Z,22.26
2022-08-03T06:23:20.938Z,22.26
2022-08-03T06:24:20.940Z,22.28
2022-08-03T06:25:21.337Z,22.30
2022-08-03T06:26:20.910Z,22.32
2022-08-03T06:27:20.903Z,22.35
2022-08-03T06:28:52.812Z,22.35
2022-08-03T06:29:20.869Z,22.38
2022-08-03T06:30:21.512Z,22.39
2022-08-03T06:31:20.863Z,22.44
2022-08-03T06:32:20.830Z,22.45
2022-08-03T06:33:20.843Z,22.45
2022-08-03T06:34:33.405Z,22.44
2022-08-03T06:35:20.814Z,22.50
2022-08-03T06:36:20.798Z,22.54
2022-08-03T06:37:20.798Z,22.54
2022-08-03T06:38:20.771Z,22.57
2022-08-03T06:39:20.784Z,22.57
2022-08-03T06:40:24.259Z,22.59
2022-08-03T06:41:20.742Z,22.59
2022-08-03T06:42:20.727Z,22.60
2022-08-03T06:43:20.716Z,22.63
2022-08-03T06:44:20.730Z,22.63
2022-08-03T06:45:20.741Z,22.66
2022-08-03T06:46:20.699Z,22.65
2022-08-03T06:47:20.679Z,22.69
2022-08-03T06:48:20.681Z,22.69
2022-08-03T06:49:20.704Z,22.69
2022-08-03T06:50:24.284Z,22.73
2022-08-03T06:51:20.669Z,22.73
2022-08-03T06:52:38.183Z,22.75
2022-08-03T06:53:21.454Z,22.78
2022-08-03T06:54:20.602Z,22.78
2022-08-03T06:55:20.590Z,22.83
2022-08-03T06:56:20.581Z,22.85
2022-08-03T06:57:20.587Z,22.85
2022-08-03T06:58:20.559Z,22.90
2022-08-03T07:00:09.730Z,22.91
2022-08-03T07:00:20.545Z,22.93
2022-08-03T07:01:20.580Z,22.94
2022-08-03T07:02:20.726Z,22.98
2022-08-03T07:03:20.684Z,22.99
2022-08-03T07:04:20.530Z,23.02
2022-08-03T07:05:20.507Z,23.00
2022-08-03T07:06:20.489Z,23.03
2022-08-03T07:07:20.483Z,23.05
2022-08-03T07:08:34.157Z,23.05
2022-08-03T07:09:20.487Z,23.09
2022-08-03T07:10:20.459Z,23.09
2022-08-03T07:11:20.514Z,23.10
2022-08-03T07:12:20.433Z,23.13
2022-08-03T07:13:20.403Z,23.15
2022-08-03T07:14:20.431Z,23.20
2022-08-03T07:15:53.754Z,23.21
2022-08-03T07:16:20.428Z,23.21
2022-08-03T07:17:20.424Z,23.23
2022-08-03T07:18:29.572Z,23.25
2022-08-03T07:19:20.354Z,23.28
2022-08-03T07:20:20.339Z,23.32
2022-08-03T07:21:20.352Z,23.34
2022-08-03T07:22:20.308Z,23.36
2022-08-03T07:23:20.299Z,23.39
2022-08-03T07:24:20.297Z,23.39
2022-08-03T07:25:20.278Z,23.41
2022-08-03T07:26:20.283Z,23.43
2022-08-03T07:27:20.252Z,23.44
2022-08-03T07:28:20.249Z,23.46
2022-08-03T07:29:20.235Z,23.48
2022-08-03T07:30:20.238Z,23.51
2022-08-03T07:31:20.212Z,23.54
2022-08-03T07:32:20.216Z,23.55
2022-08-03T07:33:20.308Z,23.56
2022-08-03T07:34:20.178Z,23.59
2022-08-03T07:35:24.611Z,23.59
2022-08-03T07:36:20.191Z,23.62
2022-08-03T07:37:20.148Z,23.63
2022-08-03T07:38:21.129Z,23.66
2022-08-03T07:39:20.130Z,23.69
2022-08-03T07:40:20.119Z,23.73
2022-08-03T07:41:20.142Z,23.77
2022-08-03T07:42:20.112Z,23.80
2022-08-03T07:43:20.078Z,23.84
2022-08-03T07:44:20.096Z,23.86
2022-08-03T07:45:20.087Z,23.87
2022-08-03T07:46:20.078Z,23.88
2022-08-03T07:47:22.806Z,23.95
2022-08-03T07:48:20.052Z,23.98
2022-08-03T07:49:20.047Z,24.01
2022-08-03T07:50:20.026Z,24.05
2022-08-03T07:51:20.021Z,24.10
2022-08-03T07:52:20.027Z,24.14
2022-08-03T07:53:19.971Z,24.14
2022-08-03T07:54:19.971Z,24.18
2022-08-03T07:55:19.958Z,24.20
2022-08-03T07:56:19.980Z,24.21
2022-08-03T07:57:19.945Z,24.23
2022-08-03T07:58:23.980Z,24.26
2022-08-03T07:59:19.970Z,24.28
2022-08-03T08:00:20.001Z,24.29
2022-08-03T08:01:20.023Z,24.30
2022-08-03T08:02:19.930Z,24.32
2022-08-03T08:03:19.878Z,24.33
2022-08-03T08:04:19.875Z,24.33
2022-08-03T08:05:19.848Z,24.36
2022-08-03T08:06:19.860Z,24.38
2022-08-03T08:07:19.826Z,24.38
2022-08-03T08:08:19.854Z,24.40
2022-08-03T08:09:19.809Z,24.40
2022-08-03T08:10:19.895Z,24.45
2022-08-03T08:11:19.781Z,24.45
2022-08-03T08:12:20.105Z,24.48
2022-08-03T08:13:19.767Z,24.50
2022-08-03T08:14:19.778Z,24.53
2022-08-03T08:15:19.744Z,24.54
2022-08-03T08:16:19.734Z,24.55
2022-08-03T08:17:19.723Z,24.57
2022-08-03T08:18:19.737Z,24.60
2022-08-03T08:19:19.711Z,24.60
2022-08-03T08:20:24.472Z,24.63
2022-08-03T08:21:19.681Z,24.63
2022-08-03T08:22:25.852Z,24.66
2022-08-03T08:23:41.735Z,24.68
2022-08-03T08:24:20.421Z,24.69
2022-08-03T08:25:19.662Z,24.70
2022-08-03T08:26:19.627Z,24.76
2022-08-03T08:27:19.631Z,24.74
2022-08-03T08:28:31.373Z,24.77
2022-08-03T08:29:19.606Z,24.78
2022-08-03T08:30:19.750Z,24.81
2022-08-03T08:31:19.604Z,24.84
2022-08-03T08:32:19.795Z,24.88
2022-08-03T08:33:23.307Z,24.88
2022-08-03T08:34:19.545Z,24.91
2022-08-03T08:35:19.533Z,24.92
2022-08-03T08:36:19.564Z,24.95
2022-08-03T08:37:19.513Z,24.98
2022-08-03T08:38:19.549Z,25.03
2022-08-03T08:39:19.489Z,25.06
2022-08-03T08:40:19.477Z,25.08
2022-08-03T08:41:19.474Z,25.13
2022-08-03T08:42:19.600Z,25.18
2022-08-03T08:43:19.463Z,25.26
2022-08-03T08:44:19.480Z,25.36
2022-08-03T08:45:19.445Z,25.46
2022-08-03T08:46:23.993Z,25.54
2022-08-03T08:47:19.414Z,25.65
2022-08-03T08:48:19.427Z,25.73
2022-08-03T08:49:19.416Z,25.83
2022-08-03T08:50:27.367Z,25.83
2022-08-03T08:51:19.383Z,25.87
2022-08-03T08:52:25.321Z,25.88
2022-08-03T08:53:22.793Z,25.88
2022-08-03T08:54:19.353Z,25.91
2022-08-03T08:55:19.355Z,25.93
2022-08-03T08:56:19.327Z,25.93
2022-08-03T08:57:40.674Z,25.93
2022-08-03T08:58:20.940Z,25.93
2022-08-03T08:59:19.291Z,25.96
2022-08-03T09:00:19.291Z,25.96
2022-08-03T09:01:19.305Z,25.99
2022-08-03T09:02:19.909Z,25.99
2022-08-03T09:03:29.674Z,26.00
2022-08-03T09:04:19.230Z,26.03
2022-08-03T09:05:19.226Z,26.03
2022-08-03T09:06:19.224Z,26.05
2022-08-03T09:07:20.611Z,26.06
2022-08-03T09:08:19.189Z,26.10
2022-08-03T09:10:05.285Z,26.15
2022-08-03T09:10:19.163Z,26.19
2022-08-03T09:11:19.171Z,26.21
2022-08-03T09:12:41.221Z,26.28
2022-08-03T09:13:19.145Z,26.28
2022-08-03T09:14:36.906Z,26.34
2022-08-03T09:15:19.119Z,26.36
2022-08-03T09:16:19.103Z,26.36
2022-08-03T09:17:19.227Z,26.40
2022-08-03T09:18:19.098Z,26.45
2022-08-03T09:19:19.093Z,26.51
2022-08-03T09:20:19.066Z,26.55
2022-08-03T09:21:34.955Z,26.60
2022-08-03T09:22:19.044Z,26.65
2022-08-03T09:23:51.467Z,26.68
2022-08-03T09:24:37.216Z,26.77
2022-08-03T09:25:24.725Z,26.85
2022-08-03T09:26:19.021Z,26.92
2022-08-03T09:27:19.116Z,26.97
2022-08-03T09:28:52.834Z,27.00
2022-08-03T09:29:18.967Z,27.03
2022-08-03T09:30:34.066Z,27.07
2022-08-03T09:31:18.951Z,27.10
2022-08-03T09:32:18.974Z,27.14
2022-08-03T09:33:18.935Z,27.15
2022-08-03T09:34:18.913Z,27.18
2022-08-03T09:35:32.973Z,27.22
2022-08-03T09:36:18.920Z,27.27
2022-08-03T09:37:19.181Z,27.30
2022-08-03T09:38:18.873Z,27.33
2022-08-03T09:39:18.866Z,27.36
2022-08-03T09:40:18.857Z,27.39
2022-08-03T09:41:18.849Z,27.37
2022-08-03T09:42:18.854Z,27.37
2022-08-03T09:43:18.856Z,27.39
2022-08-03T09:44:24.993Z,27.40
2022-08-03T09:45:18.795Z,27.42
2022-08-03T09:46:18.785Z,27.42
2022-08-03T09:47:18.983Z,27.44
2022-08-03T09:48:18.781Z,27.44
2022-08-03T09:49:18.788Z,27.44
2022-08-03T09:50:18.739Z,27.45
2022-08-03T09:51:32.975Z,27.47
2022-08-03T09:52:33.519Z,27.48
2022-08-03T09:53:18.771Z,27.49
2022-08-03T09:54:20.758Z,27.49
2022-08-03T09:56:30.544Z,27.49
2022-08-03T09:56:39.821Z,27.54
2022-08-03T09:57:19.005Z,27.55
2022-08-03T09:58:18.703Z,27.60
2022-08-03T09:59:18.691Z,27.64
2022-08-03T10:00:18.645Z,27.65
2022-08-03T10:01:24.475Z,27.68
2022-08-03T10:02:18.669Z,27.68
2022-08-03T10:03:18.620Z,27.70
2022-08-03T10:04:18.598Z,27.74
2022-08-03T10:05:19.664Z,27.74
2022-08-03T10:06:18.577Z,27.77
2022-08-03T10:07:18.878Z,27.80
2022-08-03T10:08:18.553Z,27.85
2022-08-03T10:09:18.555Z,27.87
2022-08-03T10:10:30.467Z,27.89
2022-08-03T10:11:18.542Z,27.92
2022-08-03T10:12:18.527Z,27.98
2022-08-03T10:13:18.510Z,28.02
2022-08-03T10:14:18.520Z,28.04
2022-08-03T10:16:22.448Z,28.10
2022-08-03T10:16:29.671Z,28.12
2022-08-03T10:17:18.736Z,28.20
2022-08-03T10:18:18.454Z,28.26
2022-08-03T10:19:18.434Z,28.35
2022-08-03T10:20:18.440Z,28.39
2022-08-03T10:21:18.422Z,28.44
2022-08-03T10:22:18.422Z,28.47
2022-08-03T10:23:18.402Z,28.49
2022-08-03T10:24:18.390Z,28.48
2022-08-03T10:25:18.376Z,28.48
2022-08-03T10:26:18.376Z,28.49
2022-08-03T10:27:18.662Z,28.51
2022-08-03T10:28:18.360Z,28.57
2022-08-03T10:29:18.355Z,28.63
2022-08-03T10:30:18.333Z,28.66
2022-08-03T10:31:18.315Z,28.69
2022-08-03T10:32:18.300Z,28.69
2022-08-03T10:33:51.297Z,28.69
2022-08-03T10:34:18.307Z,28.70
2022-08-03T10:35:19.745Z,28.70
2022-08-03T10:36:18.272Z,28.72
2022-08-03T10:37:18.456Z,28.74
2022-08-03T10:38:18.234Z,28.76
2022-08-03T10:39:18.350Z,28.78
2022-08-03T10:40:39.548Z,28.76
2022-08-03T10:41:18.247Z,28.78
2022-08-03T10:42:18.202Z,28.78
2022-08-03T10:43:18.211Z,28.78
2022-08-03T10:44:18.194Z,28.79
2022-08-03T10:45:18.175Z,28.84
2022-08-03T10:46:18.161Z,28.89
2022-08-03T10:47:18.499Z,28.93
2022-08-03T10:48:18.138Z,28.97
2022-08-03T10:49:33.851Z,29.05
2022-08-03T10:50:18.150Z,29.13
2022-08-03T10:51:18.113Z,29.20
2022-08-03T10:52:30.448Z,29.31
2022-08-03T10:53:18.707Z,29.39
2022-08-03T10:54:18.098Z,29.45
2022-08-03T10:55:18.114Z,29.53
2022-08-03T10:56:18.173Z,29.59
2022-08-03T10:57:18.261Z,29.65
2022-08-03T10:58:30.292Z,29.66
2022-08-03T10:59:27.454Z,29.69
2022-08-03T11:00:18.049Z,29.71
2022-08-03T11:01:18.057Z,29.73
2022-08-03T11:02:18.017Z,29.79
2022-08-03T11:03:17.989Z,29.86
2022-08-03T11:04:17.979Z,29.93
2022-08-03T11:05:17.956Z,29.98
2022-08-03T11:06:17.972Z,30.03
2022-08-03T11:07:18.273Z,30.06
2022-08-03T11:08:17.955Z,30.10
2022-08-03T11:09:17.924Z,30.13
2022-08-03T11:10:17.938Z,30.13
2022-08-03T11:11:17.895Z,30.18
2022-08-03T11:12:17.890Z,30.19
2022-08-03T11:13:17.875Z,30.19
2022-08-03T11:14:17.881Z,30.23
2022-08-03T11:15:17.961Z,30.27
2022-08-03T11:16:21.465Z,30.31
2022-08-03T11:17:18.131Z,30.37
2022-08-03T11:18:26.806Z,30.40
2022-08-03T11:19:17.822Z,30.44
2022-08-03T11:20:17.814Z,30.46
2022-08-03T11:21:17.801Z,30.48
2022-08-03T11:22:17.787Z,30.54
2022-08-03T11:23:17.767Z,30.61
2022-08-03T11:24:17.765Z,30.63
2022-08-03T11:25:53.393Z,30.65
2022-08-03T11:26:17.754Z,30.72
2022-08-03T11:27:18.080Z,30.81
2022-08-03T11:28:17.720Z,30.92
2022-08-03T11:29:17.705Z,31.02
2022-08-03T11:30:17.713Z,31.07
2022-08-03T11:31:39.326Z,31.10
2022-08-03T11:32:19.565Z,31.18
2022-08-03T11:33:17.667Z,31.21
2022-08-03T11:34:17.670Z,31.24
2022-08-03T11:35:17.669Z,31.29
2022-08-03T11:36:32.459Z,31.37
2022-08-03T11:37:17.939Z,31.47
2022-08-03T11:38:17.643Z,31.56
2022-08-03T11:39:17.606Z,31.62
2022-08-03T11:40:17.614Z,31.71
2022-08-03T11:41:17.584Z,31.76
2022-08-03T11:42:17.575Z,31.80
2022-08-03T11:43:17.589Z,31.80
2022-08-03T11:44:17.559Z,31.87
2022-08-03T11:45:17.547Z,31.89
2022-08-03T11:46:28.195Z,31.94
2022-08-03T11:47:17.953Z,32.04
2022-08-03T11:48:17.536Z,32.14
2022-08-03T11:49:17.543Z,32.27
2022-08-03T11:50:17.510Z,32.33
2022-08-03T11:51:17.476Z,32.40
2022-08-03T11:52:17.478Z,32.48
2022-08-03T11:53:17.473Z,32.58
2022-08-03T11:54:17.471Z,32.67
2022-08-03T11:55:17.448Z,32.75
2022-08-03T11:56:17.437Z,32.85
2022-08-03T11:57:17.652Z,32.90
2022-08-03T11:59:01.773Z,32.95
2022-08-03T11:59:24.269Z,33.02
2022-08-03T12:00:17.390Z,33.08
2022-08-03T12:01:22.671Z,33.14
2022-08-03T12:02:17.374Z,33.17
2022-08-03T12:03:17.384Z,33.20
2022-08-03T12:04:17.370Z,33.28
2022-08-03T12:05:17.441Z,33.32
2022-08-03T12:06:17.344Z,33.37
2022-08-03T12:07:24.456Z,33.39
2022-08-03T12:08:17.314Z,33.46
2022-08-03T12:09:17.300Z,33.50
2022-08-03T12:10:17.293Z,33.55
2022-08-03T12:11:17.297Z,33.62
2022-08-03T12:12:17.293Z,33.67
2022-08-03T12:13:56.740Z,33.71
2022-08-03T12:14:52.476Z,33.73
2022-08-03T12:15:17.309Z,33.79
2022-08-03T12:16:17.242Z,33.87
2022-08-03T12:17:17.650Z,33.95
2022-08-03T12:18:17.208Z,34.08
2022-08-03T12:19:17.203Z,34.16
2022-08-03T12:20:17.191Z,34.24
2022-08-03T12:21:17.180Z,34.35
2022-08-03T12:22:17.213Z,34.43
2022-08-03T12:23:17.177Z,34.52
2022-08-03T12:24:17.147Z,34.54
2022-08-03T12:25:17.150Z,34.57
2022-08-03T12:26:17.135Z,34.67
2022-08-03T12:27:17.371Z,34.71
2022-08-03T12:28:37.235Z,34.75
2022-08-03T12:29:17.132Z,34.83
2022-08-03T12:30:17.084Z,34.88
2022-08-03T12:31:17.121Z,34.86
2022-08-03T12:32:17.353Z,34.85
2022-08-03T12:33:17.063Z,34.88
2022-08-03T12:34:17.074Z,34.89
2022-08-03T12:35:17.060Z,34.88
2022-08-03T12:36:17.031Z,34.86
2022-08-03T12:37:22.337Z,34.89
2022-08-03T12:38:17.017Z,34.88
2022-08-03T12:39:21.402Z,34.93
2022-08-03T12:40:20.598Z,35.00
2022-08-03T12:41:17.032Z,34.97
2022-08-03T12:42:16.968Z,34.99
2022-08-03T12:43:16.985Z,34.95
2022-08-03T12:44:16.955Z,34.88
2022-08-03T12:45:16.990Z,34.89
2022-08-03T12:46:16.938Z,34.93
2022-08-03T12:47:17.164Z,34.95
2022-08-03T12:48:16.911Z,34.97
2022-08-03T12:49:16.985Z,35.04
2022-08-03T12:50:16.887Z,35.11
2022-08-03T12:51:16.906Z,35.23
2022-08-03T12:52:16.868Z,35.31
2022-08-03T12:53:16.868Z,35.37
2022-08-03T12:54:16.849Z,35.46
2022-08-03T12:55:16.847Z,35.52
2022-08-03T12:56:16.898Z,35.56
2022-08-03T12:57:16.907Z,35.53
2022-08-03T12:58:19.017Z,35.51
2022-08-03T12:59:16.810Z,35.58
2022-08-03T13:00:28.849Z,35.64
2022-08-03T13:01:16.867Z,35.71
2022-08-03T13:02:17.735Z,35.79
2022-08-03T13:03:39.614Z,35.83
2022-08-03T13:04:18.402Z,35.92
2022-08-03T13:05:16.753Z,35.97
2022-08-03T13:06:16.758Z,35.92
2022-08-03T13:07:16.732Z,35.89
2022-08-03T13:08:16.729Z,35.95
2022-08-03T13:09:16.735Z,35.97
2022-08-03T13:10:17.698Z,35.90
2022-08-03T13:11:16.692Z,35.89
2022-08-03T13:12:16.680Z,35.86
2022-08-03T13:13:16.673Z,35.89
2022-08-03T13:14:20.237Z,35.92
2022-08-03T13:15:16.655Z,35.92
2022-08-03T13:16:19.308Z,35.98
2022-08-03T13:17:16.923Z,36.01
2022-08-03T13:18:17.296Z,36.12
2022-08-03T13:19:16.621Z,36.25
2022-08-03T13:20:16.612Z,36.35
2022-08-03T13:21:16.609Z,36.40
2022-08-03T13:22:16.582Z,36.46
2022-08-03T13:23:22.271Z,36.47
2022-08-03T13:24:16.582Z,36.42
2022-08-03T13:25:16.552Z,36.45
2022-08-03T13:26:16.552Z,36.49
2022-08-03T13:27:58.851Z,36.39
2022-08-03T13:28:16.805Z,36.28
2022-08-03T13:29:16.544Z,36.25
2022-08-03T13:30:28.247Z,36.35
2022-08-03T13:31:16.505Z,36.46
2022-08-03T13:32:16.478Z,36.61
2022-08-03T13:33:16.484Z,36.76
2022-08-03T13:34:19.807Z,36.91
2022-08-03T13:35:16.754Z,37.01
2022-08-03T13:36:16.470Z,37.13
2022-08-03T13:37:16.448Z,37.15
2022-08-03T13:38:17.363Z,37.17
2022-08-03T13:39:16.430Z,37.23
2022-08-03T13:40:16.408Z,37.29
2022-08-03T13:41:16.394Z,37.33
2022-08-03T13:42:16.387Z,37.39
2022-08-03T13:43:16.372Z,37.44
2022-08-03T13:44:29.335Z,37.48
2022-08-03T13:45:16.361Z,37.48
2022-08-03T13:46:16.361Z,37.51
2022-08-03T13:47:16.409Z,37.53
2022-08-03T13:48:16.340Z,37.53
2022-08-03T13:49:16.340Z,37.59
2022-08-03T13:50:16.334Z,37.68
2022-08-03T13:51:22.758Z,37.74
2022-08-03T13:52:16.391Z,37.74
2022-08-03T13:53:16.273Z,37.77
2022-08-03T13:54:16.271Z,37.78
2022-08-03T13:55:16.268Z,37.82
2022-08-03T13:56:16.321Z,37.86
2022-08-03T13:58:02.454Z,37.83
2022-08-03T13:58:16.535Z,37.78
2022-08-03T13:59:16.233Z,37.80
2022-08-03T14:00:28.141Z,37.92
2022-08-03T14:01:16.231Z,37.99
2022-08-03T14:02:16.249Z,37.89
2022-08-03T14:03:16.207Z,37.89
2022-08-03T14:04:21.828Z,37.93
2022-08-03T14:05:16.167Z,38.04
2022-08-03T14:06:16.144Z,38.02
2022-08-03T14:07:16.135Z,38.06
2022-08-03T14:08:16.170Z,38.12
2022-08-03T14:09:16.129Z,38.09
2022-08-03T14:10:16.108Z,38.08
2022-08-03T14:11:16.112Z,38.11
2022-08-03T14:12:16.093Z,38.17
2022-08-03T14:13:18.021Z,38.20
2022-08-03T14:14:16.088Z,38.27
2022-08-03T14:15:16.062Z,38.34
2022-08-03T14:16:16.870Z,38.28
2022-08-03T14:17:16.411Z,38.26
2022-08-03T14:18:28.248Z,38.23
2022-08-03T14:19:16.068Z,38.21
2022-08-03T14:20:37.236Z,38.33
2022-08-03T14:21:16.008Z,38.40
2022-08-03T14:22:15.997Z,38.52
2022-08-03T14:23:15.991Z,38.65
2022-08-03T14:24:15.968Z,38.77
2022-08-03T14:25:15.986Z,38.89
2022-08-03T14:26:15.949Z,38.97
2022-08-03T14:27:15.959Z,39.15
2022-08-03T14:28:15.955Z,39.18
2022-08-03T14:29:15.966Z,39.33
2022-08-03T14:30:15.932Z,39.40
2022-08-03T14:32:10.137Z,39.43
2022-08-03T14:32:17.278Z,39.44
2022-08-03T14:33:15.893Z,39.41
2022-08-03T14:34:15.877Z,39.51
2022-08-03T14:35:15.906Z,39.49
2022-08-03T14:36:15.856Z,39.44
2022-08-03T14:37:15.862Z,39.36
2022-08-03T14:38:15.842Z,39.33
2022-08-03T14:39:15.874Z,39.43
2022-08-03T14:40:15.854Z,39.49
2022-08-03T14:41:20.080Z,39.51
2022-08-03T14:42:15.821Z,39.31
2022-08-03T14:43:15.792Z,39.24
2022-08-03T14:44:15.782Z,39.22
2022-08-03T14:45:19.815Z,39.29
2022-08-03T14:46:15.770Z,39.44
2022-08-03T14:47:15.765Z,39.60
2022-08-03T14:50:33.697Z,39.70
2022-08-03T14:50:50.506Z,39.53
2022-08-03T14:50:56.032Z,39.67
2022-08-03T14:51:55.184Z,39.75
2022-08-03T14:52:55.165Z,39.87
2022-08-03T14:53:55.162Z,40.11
2022-08-03T14:54:55.151Z,40.34
2022-08-03T14:55:55.161Z,40.47
2022-08-03T14:56:55.134Z,40.58
2022-08-03T14:57:55.121Z,40.58
2022-08-03T14:58:55.120Z,40.75
2022-08-03T14:59:57.249Z,40.88
2022-08-03T15:00:55.121Z,41.03
2022-08-03T15:02:02.365Z,41.21
2022-08-03T15:02:55.129Z,41.40
2022-08-03T15:03:55.074Z,41.59
2022-08-03T15:04:55.062Z,41.82
2022-08-03T15:05:55.055Z,41.99
2022-08-03T15:06:55.054Z,42.13
2022-08-03T15:07:55.064Z,42.32
2022-08-03T15:09:21.611Z,42.50
2022-08-03T15:09:55.030Z,42.57
2022-08-03T15:10:55.011Z,42.50
2022-08-03T15:11:55.006Z,42.47
2022-08-03T15:12:55.016Z,42.50
2022-08-03T15:13:55.019Z,42.57
2022-08-03T15:14:54.977Z,42.60
2022-08-03T15:15:55.029Z,42.65
2022-08-03T15:16:54.991Z,42.76
2022-08-03T15:18:00.297Z,42.91
2022-08-03T15:18:54.946Z,42.81
2022-08-03T15:20:02.079Z,42.58
2022-08-03T15:20:54.925Z,42.65
2022-08-03T15:21:54.930Z,42.76
2022-08-03T15:22:54.911Z,42.81
2022-08-03T15:23:54.947Z,42.82
2022-08-03T15:24:54.901Z,42.97
2022-08-03T15:26:32.242Z,43.10
2022-08-03T15:26:54.884Z,43.07
2022-08-03T15:28:03.525Z,42.99
2022-08-03T15:28:54.879Z,43.07
2022-08-03T15:30:07.874Z,43.16
2022-08-03T15:30:54.843Z,43.13
2022-08-03T15:31:54.848Z,43.13
2022-08-03T15:32:54.832Z,42.92
2022-08-03T15:33:54.840Z,42.51
2022-08-03T15:34:54.796Z,42.06
2022-08-03T15:35:54.807Z,41.70
2022-08-03T15:36:54.778Z,41.37
2022-08-03T15:37:54.839Z,41.02
2022-08-03T15:38:54.803Z,40.81
2022-08-03T15:39:59.918Z,40.58
2022-08-03T15:40:54.923Z,40.47
2022-08-03T15:41:54.737Z,40.34
2022-08-03T15:42:54.723Z,40.31
2022-08-03T15:43:54.759Z,40.33
2022-08-03T15:44:54.748Z,40.33
2022-08-03T15:46:26.552Z,40.20
2022-08-03T15:46:54.692Z,40.04
2022-08-03T15:47:54.792Z,39.90
2022-08-03T15:48:54.692Z,39.71
2022-08-03T15:49:54.671Z,39.53
2022-08-03T15:50:54.653Z,39.40
2022-08-03T15:51:54.656Z,39.31
2022-08-03T15:52:54.627Z,39.22
2022-08-03T15:53:54.633Z,39.06
2022-08-03T15:54:54.662Z,38.89
2022-08-03T15:55:54.643Z,38.73
2022-08-03T15:56:54.595Z,38.64
2022-08-03T15:59:04.117Z,38.62
2022-08-03T15:59:16.170Z,38.60
2022-08-03T15:59:54.576Z,38.57
2022-08-03T16:00:54.614Z,38.49
2022-08-03T16:01:54.631Z,38.38
2022-08-03T16:02:55.788Z,38.30
2022-08-03T16:03:54.531Z,38.20
2022-08-03T16:04:54.524Z,38.14
2022-08-03T16:05:54.517Z,38.11
2022-08-03T16:06:54.538Z,38.08
2022-08-03T16:08:03.502Z,38.02
2022-08-03T16:08:54.494Z,37.92
2022-08-03T16:09:54.481Z,37.74
2022-08-03T16:10:54.466Z,37.63
2022-08-03T16:11:54.460Z,37.58
2022-08-03T16:12:54.469Z,37.47
2022-08-03T16:14:13.726Z,37.36
2022-08-03T16:14:54.457Z,37.35
2022-08-03T16:15:54.415Z,37.28
2022-08-03T16:16:54.403Z,37.17
2022-08-03T16:17:54.407Z,37.10
2022-08-03T16:18:54.386Z,37.07
2022-08-03T16:19:55.158Z,37.03
2022-08-03T16:20:54.370Z,37.02
2022-08-03T16:21:54.346Z,36.98
2022-08-03T16:22:54.364Z,36.84
2022-08-03T16:23:54.337Z,36.72
2022-08-03T16:24:54.341Z,36.55
2022-08-03T16:25:54.336Z,36.46
2022-08-03T16:26:54.313Z,36.27
2022-08-03T16:27:58.178Z,36.25
2022-08-03T16:28:54.300Z,36.17
2022-08-03T16:29:54.303Z,36.17
2022-08-03T16:30:54.288Z,36.16
2022-08-03T16:31:54.255Z,36.07
2022-08-03T16:32:54.244Z,36.05
2022-08-03T16:33:54.227Z,36.04
2022-08-03T16:34:54.230Z,36.00
2022-08-03T16:35:54.226Z,35.98
2022-08-03T16:36:54.205Z,35.97
2022-08-03T16:37:56.201Z,35.97
2022-08-03T16:38:54.242Z,35.92
2022-08-03T16:39:54.240Z,35.90
2022-08-03T16:40:54.171Z,35.83
2022-08-03T16:42:01.313Z,35.82
2022-08-03T16:42:54.177Z,35.80
2022-08-03T16:43:54.135Z,35.80